Jose Maria Córdova International Airport
SKRG : now visible

Airfield :











YOU CAN JOIN US ON...

 
LOGIN :

Register | Disclaimer

   EN    FR    IT 

 









Legend :    VFR   Marginal VFR   IFR   Intensive IFR   Very Intensive IFR
Visi :
Ceiling :
>= 8 km
>= 3000ft
5 to 8 km
1000 to 3000 ft
1500m to 5 km
500 to 1000 ft
800 to 1500m
200 to 500 ft
< 800m
< 200 ft
Symbols :   Thunderstorms  Fog  Heavy snow  Heavy precipitations  Wind > 20 kt






- Airport Elevation : 6955 ft
- IATA code : MDE


SKRG - Jose Maria Córdova International

CURRENT METAR :
  • 022000Z 12008KT 9999 VCSH SCT020CB SCT200 21/14 A3024 NOSIG RMK CB/VCSH S/SW

EXPIRED METARs :
  • 021900Z 12010KT 9999 VCSH SCT020CB SCT200 23/14 A3024 NOSIG RMK CB/VCSH S/SW
  • 021800Z 12010KT 9999 SCT020TCU 23/14 A3027 BECMG FM1930 SCT020CB RMK TCU S/SW
  • 021700Z 07007KT 9999 SCT020 23/14 A3029 NOSIG

TAF TAF SKRG
Valid from the 02 at 18:00 until the 03 at 18:00 UTC


021630Z 0218/0318 13008KT 9999 SCT020
PROB40
TEMPO 0220/0223 DZ SCT020TCU SCT080
BECMG 0300/0302 VRB02KT
TEMPO 0303/0306 4000 DZ BR BKN010
TEMPO 0308/0312 2000 BR BKN007
BECMG 0314/0316 09010KT TX23/0218Z TN13/0309Z



MET'MAP, your aeronautical weather chart ! - Copyright ORBIFLY December 2007 - Disclaimer

ORBIFLY MET'MAP TEAM :

Programming & Development : Alexandra Zaïnal
Concept & original design : Baudouin d'Aumeries
Assistance for programming : Marc-Olivier Méhu
Technical & hardware support : Manuel Goepfert

Contact : metmap@orbifly.com




SOURCES & CREDITS :

   NOAA       Earth
Advisory